createdAt,value
2022-08-19T00:01:59.429Z,88.70
2022-08-19T00:04:36.063Z,88.90
2022-08-19T00:07:06.694Z,89.10
2022-08-19T00:09:35.018Z,89.10
2022-08-19T00:12:03.010Z,89.30
2022-08-19T00:14:32.973Z,89.40
2022-08-19T00:17:02.201Z,89.60
2022-08-19T00:19:30.365Z,89.80
2022-08-19T00:21:58.520Z,90.10
2022-08-19T00:24:29.943Z,90.10
2022-08-19T00:26:58.391Z,90.20
2022-08-19T00:29:46.462Z,90.20
2022-08-19T00:32:21.023Z,90.30
2022-08-19T00:34:49.233Z,90.40
2022-08-19T00:37:17.045Z,90.50
2022-08-19T00:39:45.020Z,90.50
2022-08-19T00:42:17.319Z,90.60
2022-08-19T00:44:45.229Z,90.70
2022-08-19T00:47:14.265Z,90.80
2022-08-19T00:49:51.798Z,90.80
2022-08-19T00:52:33.315Z,90.80
2022-08-19T00:55:02.626Z,91.00
2022-08-19T00:57:37.132Z,90.90
2022-08-19T01:00:12.620Z,91.10
2022-08-19T01:02:41.888Z,91.10
2022-08-19T01:05:16.520Z,91.10
2022-08-19T01:07:44.798Z,91.10
2022-08-19T01:10:17.515Z,91.00
2022-08-19T01:12:45.770Z,91.10
2022-08-19T01:15:17.070Z,91.00
2022-08-19T01:17:45.764Z,91.00
2022-08-19T01:20:18.362Z,91.00
2022-08-19T01:22:50.441Z,91.00
2022-08-19T01:25:27.838Z,91.00
2022-08-19T01:27:59.076Z,91.00
2022-08-19T01:30:36.905Z,91.00
2022-08-19T01:33:06.902Z,91.00
2022-08-19T01:35:37.052Z,91.30
2022-08-19T01:38:09.313Z,91.10
2022-08-19T01:40:41.183Z,91.20
2022-08-19T01:43:09.094Z,91.00
2022-08-19T01:45:38.756Z,91.00
2022-08-19T01:48:07.462Z,91.20
2022-08-19T01:50:36.549Z,91.20
2022-08-19T01:53:07.963Z,91.20
2022-08-19T01:55:40.623Z,91.20
2022-08-19T01:58:17.994Z,91.20
2022-08-19T02:00:46.952Z,91.30
2022-08-19T02:03:15.745Z,91.30
2022-08-19T02:05:45.058Z,91.30
2022-08-19T02:08:13.901Z,91.40
2022-08-19T02:10:43.570Z,91.50
2022-08-19T02:13:17.826Z,91.60
2022-08-19T02:15:54.424Z,91.60
2022-08-19T02:18:22.601Z,91.70
2022-08-19T02:20:56.443Z,91.80
2022-08-19T02:23:24.640Z,91.70
2022-08-19T02:25:53.531Z,91.70
2022-08-19T02:28:21.374Z,91.70
2022-08-19T02:30:49.827Z,91.70
2022-08-19T02:33:18.275Z,91.70
2022-08-19T02:35:48.008Z,91.80
2022-08-19T02:38:28.464Z,91.70
2022-08-19T02:40:59.714Z,92.00
2022-08-19T02:43:33.823Z,91.70
2022-08-19T02:46:03.950Z,91.80
2022-08-19T02:48:34.109Z,91.80
2022-08-19T02:51:02.134Z,91.90
2022-08-19T02:53:30.436Z,91.90
2022-08-19T02:55:58.996Z,91.90
2022-08-19T02:58:27.981Z,91.80
2022-08-19T03:00:57.681Z,91.90
2022-08-19T03:03:25.947Z,92.00
2022-08-19T03:06:08.170Z,92.10
2022-08-19T03:08:36.750Z,92.00
2022-08-19T03:11:05.036Z,92.20
2022-08-19T03:13:33.931Z,92.00
2022-08-19T03:16:06.657Z,92.00
2022-08-19T03:18:34.420Z,92.10
2022-08-19T03:21:03.748Z,92.00
2022-08-19T03:23:31.597Z,92.00
2022-08-19T03:26:15.895Z,92.00
2022-08-19T03:28:51.138Z,92.10
2022-08-19T03:31:44.495Z,92.10
2022-08-19T03:34:19.427Z,92.00
2022-08-19T03:36:48.000Z,92.10
2022-08-19T03:39:17.000Z,92.20
2022-08-19T03:41:48.268Z,92.00
2022-08-19T03:44:20.865Z,92.10
2022-08-19T03:46:52.833Z,92.00
2022-08-19T03:49:28.305Z,92.00
2022-08-19T03:51:58.870Z,92.00
2022-08-19T03:54:27.851Z,92.10
2022-08-19T03:56:57.264Z,92.10
2022-08-19T03:59:33.186Z,92.20
2022-08-19T04:02:20.597Z,92.20
2022-08-19T04:04:48.536Z,92.30
2022-08-19T04:07:17.349Z,92.10
2022-08-19T04:09:45.652Z,92.00
2022-08-19T04:12:13.583Z,91.90
2022-08-19T04:14:42.568Z,91.90
2022-08-19T04:17:10.488Z,91.80
2022-08-19T04:19:38.425Z,91.70
2022-08-19T04:22:08.006Z,91.60
2022-08-19T04:24:36.692Z,91.50
2022-08-19T04:27:06.669Z,91.40
2022-08-19T04:29:35.008Z,91.30
2022-08-19T04:32:08.626Z,91.20
2022-08-19T04:35:15.805Z,91.10
2022-08-19T04:37:35.332Z,91.00
2022-08-19T04:40:26.502Z,90.90
2022-08-19T04:42:55.362Z,90.70
2022-08-19T04:45:23.784Z,90.60
2022-08-19T04:47:58.819Z,90.50
2022-08-19T04:50:46.545Z,90.40
2022-08-19T04:53:14.408Z,90.30
2022-08-19T04:55:43.705Z,90.10
2022-08-19T04:58:11.933Z,90.10
2022-08-19T05:00:41.185Z,90.00
2022-08-19T05:03:09.721Z,89.70
2022-08-19T05:05:44.973Z,89.40
2022-08-19T05:08:15.417Z,89.20
2022-08-19T05:10:44.490Z,89.00
2022-08-19T05:13:12.496Z,88.60
2022-08-19T05:15:40.643Z,88.50
2022-08-19T05:18:27.161Z,88.20
2022-08-19T05:21:13.849Z,88.40
2022-08-19T05:23:45.899Z,88.00
2022-08-19T05:26:17.391Z,87.40
2022-08-19T05:28:46.023Z,87.60
2022-08-19T05:31:14.263Z,87.50
2022-08-19T05:33:42.138Z,87.20
2022-08-19T05:36:10.827Z,87.00
2022-08-19T05:38:39.100Z,86.40
2022-08-19T05:41:15.265Z,86.20
2022-08-19T05:43:43.435Z,85.70
2022-08-19T05:46:19.921Z,85.70
2022-08-19T05:48:57.712Z,85.20
2022-08-19T05:51:29.203Z,85.00
2022-08-19T05:53:57.583Z,84.90
2022-08-19T05:56:26.209Z,84.20
2022-08-19T05:58:55.381Z,83.80
2022-08-19T06:01:27.734Z,84.00
2022-08-19T06:03:55.640Z,83.20
2022-08-19T06:06:23.517Z,82.70
2022-08-19T06:08:52.108Z,82.90
2022-08-19T06:11:44.790Z,82.30
2022-08-19T06:14:16.963Z,82.10
2022-08-19T06:16:45.917Z,82.30
2022-08-19T06:19:17.182Z,82.00
2022-08-19T06:21:47.817Z,82.10
2022-08-19T06:24:18.520Z,81.80
2022-08-19T06:29:37.340Z,81.70
2022-08-19T06:32:05.712Z,82.20
2022-08-19T06:34:35.488Z,81.70
2022-08-19T06:37:04.181Z,81.80
2022-08-19T06:39:35.153Z,81.90
2022-08-19T06:42:07.424Z,81.90
2022-08-19T06:44:43.040Z,80.80
2022-08-19T06:47:23.091Z,80.60
2022-08-19T06:50:05.413Z,80.50
2022-08-19T06:52:38.377Z,80.80
2022-08-19T06:55:07.633Z,80.90
2022-08-19T06:57:36.215Z,79.90
2022-08-19T07:00:07.913Z,79.80
2022-08-19T07:02:39.322Z,80.20
2022-08-19T07:05:08.637Z,80.20
2022-08-19T07:07:39.090Z,79.50
2022-08-19T07:10:11.251Z,80.30
2022-08-19T07:12:42.059Z,79.50
2022-08-19T07:15:11.088Z,78.80
2022-08-19T07:17:42.109Z,78.70
2022-08-19T07:20:11.900Z,78.80
2022-08-19T07:22:41.147Z,78.70
2022-08-19T07:25:10.764Z,78.90
2022-08-19T07:27:39.805Z,78.50
2022-08-19T07:30:11.739Z,78.40
2022-08-19T07:32:41.654Z,77.60
2022-08-19T07:35:10.691Z,77.60
2022-08-19T07:37:39.528Z,77.00
2022-08-19T07:40:09.040Z,77.20
2022-08-19T07:42:37.013Z,77.30
2022-08-19T07:45:06.538Z,76.90
2022-08-19T07:47:50.120Z,77.40
2022-08-19T07:50:21.925Z,76.50
2022-08-19T07:52:51.075Z,76.70
2022-08-19T07:55:42.204Z,76.10
2022-08-19T07:58:13.947Z,75.60
2022-08-19T08:00:43.488Z,75.60
2022-08-19T08:03:12.147Z,75.50
2022-08-19T08:05:58.647Z,75.30
2022-08-19T08:08:48.270Z,75.80
2022-08-19T08:11:24.103Z,75.10
2022-08-19T08:14:01.433Z,75.20
2022-08-19T08:16:39.296Z,74.90
2022-08-19T08:19:18.217Z,73.70
2022-08-19T08:21:56.719Z,73.20
2022-08-19T08:24:28.280Z,73.80
2022-08-19T08:26:58.029Z,72.70
2022-08-19T08:29:27.201Z,73.80
2022-08-19T08:32:14.241Z,73.10
2022-08-19T08:34:43.865Z,71.80
2022-08-19T08:37:12.014Z,72.30
2022-08-19T08:39:40.047Z,71.20
2022-08-19T08:42:18.725Z,71.30
2022-08-19T08:47:42.440Z,70.90
2022-08-19T08:50:15.808Z,70.50
2022-08-19T08:52:49.559Z,68.80
2022-08-19T08:55:25.656Z,70.10
2022-08-19T08:58:07.131Z,69.80
2022-08-19T09:00:42.100Z,69.70
2022-08-19T09:03:25.650Z,69.70
2022-08-19T09:06:11.887Z,69.00
2022-08-19T09:08:44.129Z,69.30
2022-08-19T09:11:44.449Z,68.40
2022-08-19T09:14:50.183Z,67.60
2022-08-19T09:17:31.996Z,68.30
2022-08-19T09:20:10.645Z,67.80
2022-08-19T09:22:40.697Z,67.40
2022-08-19T09:25:10.762Z,68.30
2022-08-19T09:27:43.798Z,67.50
2022-08-19T09:30:19.526Z,67.20
2022-08-19T09:32:52.744Z,65.40
2022-08-19T09:35:26.477Z,65.80
2022-08-19T09:37:59.826Z,64.00
2022-08-19T09:40:30.930Z,63.40
2022-08-19T09:43:10.059Z,63.30
2022-08-19T09:45:41.908Z,63.50
2022-08-19T09:48:11.844Z,62.80
2022-08-19T09:50:51.894Z,62.00
2022-08-19T09:53:25.251Z,61.00
2022-08-19T09:55:56.797Z,61.20
2022-08-19T09:58:28.795Z,62.20
2022-08-19T10:00:58.545Z,61.20
2022-08-19T10:03:30.279Z,61.80
2022-08-19T10:06:01.365Z,61.10
2022-08-19T10:08:35.964Z,59.30
2022-08-19T10:11:28.709Z,60.20
2022-08-19T10:13:53.491Z,58.70
2022-08-19T10:16:29.189Z,59.20
2022-08-19T10:18:59.121Z,58.00
2022-08-19T10:21:32.140Z,57.90
2022-08-19T10:24:04.976Z,58.10
2022-08-19T10:26:38.193Z,57.70
2022-08-19T10:29:09.477Z,57.30
2022-08-19T10:32:02.298Z,57.50
2022-08-19T10:34:28.351Z,57.50
2022-08-19T10:37:00.590Z,55.70
2022-08-19T10:39:32.599Z,55.40
2022-08-19T10:42:12.915Z,54.80
2022-08-19T10:44:41.102Z,54.50
2022-08-19T10:47:21.841Z,55.60
2022-08-19T10:50:13.261Z,53.50
2022-08-19T10:52:50.028Z,52.30
2022-08-19T10:55:41.477Z,50.60
2022-08-19T10:58:15.181Z,50.90
2022-08-19T11:00:46.873Z,50.80
2022-08-19T11:03:14.991Z,50.90
2022-08-19T11:05:43.187Z,51.50
2022-08-19T11:08:23.061Z,50.30
2022-08-19T11:11:00.397Z,49.80
2022-08-19T11:13:38.013Z,50.30
2022-08-19T11:16:09.447Z,49.70
2022-08-19T11:18:39.699Z,50.70
2022-08-19T11:21:22.271Z,50.90
2022-08-19T11:23:56.692Z,50.70
2022-08-19T11:26:25.492Z,51.10
2022-08-19T11:28:55.747Z,50.40
2022-08-19T11:31:28.990Z,51.50
2022-08-19T11:34:02.770Z,50.00
2022-08-19T11:36:32.359Z,49.60
2022-08-19T11:39:01.135Z,50.20
2022-08-19T11:41:29.511Z,50.30
2022-08-19T11:43:57.931Z,50.20
2022-08-19T11:46:30.731Z,50.00
2022-08-19T11:49:00.623Z,49.60
2022-08-19T11:51:29.679Z,49.40
2022-08-19T11:53:59.495Z,49.80
2022-08-19T11:56:29.157Z,50.10
2022-08-19T11:58:58.055Z,49.50
2022-08-19T12:01:27.542Z,49.20
2022-08-19T12:03:57.668Z,49.40
2022-08-19T12:06:30.307Z,49.90
2022-08-19T12:08:59.961Z,50.20
2022-08-19T12:11:41.874Z,50.40
2022-08-19T12:14:15.294Z,49.90
2022-08-19T12:16:51.608Z,50.00
2022-08-19T12:19:21.731Z,49.60
2022-08-19T12:21:51.648Z,49.70
2022-08-19T12:24:24.378Z,49.60
2022-08-19T12:26:53.871Z,49.70
2022-08-19T12:29:24.353Z,49.30
2022-08-19T12:31:52.778Z,49.40
2022-08-19T12:34:21.716Z,48.90
2022-08-19T12:36:50.987Z,49.50
2022-08-19T12:39:19.219Z,49.50
2022-08-19T12:41:51.478Z,49.20
2022-08-19T12:44:29.389Z,49.00
2022-08-19T12:47:00.725Z,49.30
2022-08-19T12:49:53.261Z,49.60
2022-08-19T12:52:23.107Z,49.30
2022-08-19T12:54:54.554Z,48.80
2022-08-19T12:57:32.621Z,48.70
2022-08-19T13:00:14.734Z,48.30
2022-08-19T13:02:45.716Z,49.10
2022-08-19T13:05:17.211Z,49.10
2022-08-19T13:07:45.294Z,49.30
2022-08-19T13:10:19.176Z,48.90
2022-08-19T13:12:50.218Z,48.60
2022-08-19T13:15:24.019Z,48.40
2022-08-19T13:17:54.375Z,48.80
2022-08-19T13:20:23.270Z,48.70
2022-08-19T13:22:51.328Z,48.70
2022-08-19T13:25:21.085Z,49.40
2022-08-19T13:27:50.585Z,48.30
2022-08-19T13:30:39.318Z,48.40
2022-08-19T13:33:17.920Z,48.10
2022-08-19T13:35:45.963Z,47.80
2022-08-19T13:38:15.342Z,48.30
2022-08-19T13:40:43.600Z,48.10
2022-08-19T13:43:17.766Z,47.70
2022-08-19T13:45:56.551Z,47.80
2022-08-19T13:48:27.658Z,47.60
2022-08-19T13:50:56.388Z,47.90
2022-08-19T13:53:24.763Z,48.30
2022-08-19T13:55:54.791Z,48.30
2022-08-19T13:58:25.675Z,48.20
2022-08-19T14:00:53.732Z,48.30
2022-08-19T14:03:21.768Z,48.20
2022-08-19T14:05:50.017Z,48.40
2022-08-19T14:08:18.340Z,48.50
2022-08-19T14:10:46.911Z,48.70
2022-08-19T14:13:17.626Z,48.10
2022-08-19T14:15:46.231Z,48.40
2022-08-19T14:18:14.651Z,49.00
2022-08-19T14:20:43.604Z,48.50
2022-08-19T14:23:13.504Z,47.90
2022-08-19T14:25:41.478Z,47.20
2022-08-19T14:28:10.024Z,47.50
2022-08-19T14:30:39.367Z,46.80
2022-08-19T14:33:08.405Z,46.90
2022-08-19T14:35:36.619Z,46.60
2022-08-19T14:38:06.321Z,46.50
2022-08-19T14:40:34.619Z,46.60
2022-08-19T14:43:06.323Z,46.20
2022-08-19T14:45:37.164Z,46.00
2022-08-19T14:48:12.567Z,46.10
2022-08-19T14:50:47.676Z,46.00
2022-08-19T14:53:18.073Z,45.90
2022-08-19T14:55:47.711Z,45.70
2022-08-19T14:58:28.333Z,45.60
2022-08-19T15:01:00.594Z,45.20
2022-08-19T15:03:29.892Z,45.50
2022-08-19T15:05:58.941Z,45.00
2022-08-19T15:08:28.598Z,44.70
2022-08-19T15:11:00.165Z,45.40
2022-08-19T15:13:30.618Z,45.00
2022-08-19T15:15:58.550Z,44.70
2022-08-19T15:18:26.577Z,44.90
2022-08-19T15:20:56.195Z,45.20
2022-08-19T15:23:24.747Z,45.30
2022-08-19T15:25:56.710Z,45.60
2022-08-19T15:28:26.891Z,45.90
2022-08-19T15:30:54.855Z,45.80
2022-08-19T15:33:22.844Z,45.70
2022-08-19T15:35:51.917Z,45.80
2022-08-19T15:38:22.491Z,45.60
2022-08-19T15:40:50.758Z,45.60
2022-08-19T15:43:22.418Z,45.70
2022-08-19T15:45:50.377Z,46.10
2022-08-19T15:48:18.236Z,46.20
2022-08-19T15:50:46.395Z,46.20
2022-08-19T15:53:14.252Z,46.50
2022-08-19T15:55:47.770Z,46.50
2022-08-19T15:58:34.479Z,46.40
2022-08-19T16:01:26.853Z,46.30
2022-08-19T16:04:15.592Z,46.30
2022-08-19T16:06:47.457Z,46.40
2022-08-19T16:09:17.022Z,47.00
2022-08-19T16:11:46.386Z,47.00
2022-08-19T16:14:16.703Z,46.90
2022-08-19T16:16:48.366Z,46.00
2022-08-19T16:19:18.281Z,45.90
2022-08-19T16:21:50.669Z,46.40
2022-08-19T16:24:20.792Z,46.80
2022-08-19T16:26:49.465Z,46.80
2022-08-19T16:29:33.244Z,47.70
2022-08-19T16:32:10.579Z,47.10
2022-08-19T16:34:40.666Z,47.50
2022-08-19T16:37:10.449Z,47.40
2022-08-19T16:39:43.752Z,47.30
2022-08-19T16:42:13.640Z,47.40
2022-08-19T16:44:46.088Z,47.50
2022-08-19T16:47:15.487Z,47.70
2022-08-19T16:49:54.103Z,47.80
2022-08-19T16:52:27.235Z,47.70
2022-08-19T16:54:55.354Z,47.90
2022-08-19T16:57:24.258Z,48.10
2022-08-19T17:00:13.186Z,48.10
2022-08-19T17:02:41.269Z,48.30
2022-08-19T17:05:10.371Z,48.30
2022-08-19T17:07:38.232Z,48.30
2022-08-19T17:10:07.109Z,48.40
2022-08-19T17:12:35.285Z,48.60
2022-08-19T17:15:04.526Z,48.70
2022-08-19T17:17:32.923Z,48.50
2022-08-19T17:20:03.008Z,48.60
2022-08-19T17:22:30.876Z,48.90
2022-08-19T17:24:59.065Z,48.90
2022-08-19T17:27:32.176Z,49.20
2022-08-19T17:30:03.996Z,49.50
2022-08-19T17:32:35.115Z,49.70
2022-08-19T17:35:04.985Z,50.00
2022-08-19T17:37:33.867Z,50.30
2022-08-19T17:40:11.904Z,51.20
2022-08-19T17:42:41.478Z,50.90
2022-08-19T17:45:11.615Z,51.30
2022-08-19T17:47:40.830Z,51.50
2022-08-19T17:50:11.202Z,51.80
2022-08-19T17:52:40.929Z,52.10
2022-08-19T17:55:10.624Z,52.40
2022-08-19T17:57:46.533Z,52.80
2022-08-19T18:00:15.725Z,53.00
2022-08-19T18:02:51.462Z,53.10
2022-08-19T18:05:26.131Z,53.40
2022-08-19T18:07:54.716Z,53.50
2022-08-19T18:10:24.834Z,54.10
2022-08-19T18:13:02.661Z,54.00
2022-08-19T18:15:45.975Z,54.90
2022-08-19T18:18:15.408Z,54.70
2022-08-19T18:20:44.851Z,54.80
2022-08-19T18:23:45.796Z,55.10
2022-08-19T18:26:02.182Z,55.30
2022-08-19T18:28:31.375Z,55.50
2022-08-19T18:30:59.789Z,55.70
2022-08-19T18:33:27.789Z,56.00
2022-08-19T18:35:56.238Z,56.20
2022-08-19T18:38:42.476Z,56.30
2022-08-19T18:41:29.832Z,56.60
2022-08-19T18:44:16.098Z,56.90
2022-08-19T18:47:03.225Z,57.10
2022-08-19T18:49:34.785Z,57.40
2022-08-19T18:52:03.828Z,57.80
2022-08-19T18:54:32.833Z,58.00
2022-08-19T18:57:00.753Z,58.10
2022-08-19T18:59:32.663Z,58.30
2022-08-19T19:02:02.506Z,58.40
2022-08-19T19:04:34.576Z,58.80
2022-08-19T19:07:03.570Z,59.60
2022-08-19T19:09:31.675Z,59.60
2022-08-19T19:12:01.679Z,59.60
2022-08-19T19:14:48.577Z,59.30
2022-08-19T19:17:18.173Z,59.10
2022-08-19T19:19:46.346Z,58.70
2022-08-19T19:22:18.724Z,58.80
2022-08-19T19:24:46.934Z,59.00
2022-08-19T19:27:18.770Z,59.20
2022-08-19T19:29:51.526Z,59.40
2022-08-19T19:32:23.245Z,59.30
2022-08-19T19:34:51.468Z,59.00
2022-08-19T19:37:19.797Z,58.60
2022-08-19T19:39:48.432Z,58.10
2022-08-19T19:42:20.741Z,58.80
2022-08-19T19:44:51.072Z,58.20
2022-08-19T19:47:21.675Z,58.20
2022-08-19T19:52:41.652Z,58.30
2022-08-19T19:55:17.191Z,58.30
2022-08-19T19:57:46.516Z,58.20
2022-08-19T20:00:18.419Z,58.20
2022-08-19T20:02:49.812Z,58.40
2022-08-19T20:05:21.730Z,58.40
2022-08-19T20:08:28.452Z,58.40
2022-08-19T20:11:09.355Z,58.60
2022-08-19T20:13:40.914Z,58.50
2022-08-19T20:16:09.292Z,58.60
2022-08-19T20:18:39.061Z,58.70
2022-08-19T20:21:07.143Z,58.70
2022-08-19T20:23:35.074Z,58.80
2022-08-19T20:26:03.293Z,58.80
2022-08-19T20:28:32.153Z,58.90
2022-08-19T20:31:00.269Z,58.90
2022-08-19T20:33:30.393Z,59.10
2022-08-19T20:35:58.219Z,59.20
2022-08-19T20:38:26.015Z,59.30
2022-08-19T20:40:54.390Z,59.30
2022-08-19T20:43:22.243Z,59.50
2022-08-19T20:45:50.108Z,59.60
2022-08-19T20:48:18.423Z,59.60
2022-08-19T20:50:46.249Z,59.80
2022-08-19T20:53:17.175Z,60.00
2022-08-19T20:55:49.675Z,60.10
2022-08-19T20:58:21.476Z,60.30
2022-08-19T21:00:50.781Z,60.40
2022-08-19T21:03:22.027Z,60.80
2022-08-19T21:05:50.720Z,61.00
2022-08-19T21:08:20.057Z,61.20
2022-08-19T21:10:49.824Z,61.20
2022-08-19T21:13:20.129Z,61.40
2022-08-19T21:15:48.538Z,61.60
2022-08-19T21:18:19.591Z,61.60
2022-08-19T21:20:48.457Z,61.80
2022-08-19T21:23:22.648Z,61.90
2022-08-19T21:25:54.499Z,62.20
2022-08-19T21:28:35.703Z,62.20
2022-08-19T21:31:06.917Z,62.40
2022-08-19T21:33:34.843Z,62.60
2022-08-19T21:36:03.969Z,62.60
2022-08-19T21:38:32.983Z,62.70
2022-08-19T21:41:05.965Z,62.90
2022-08-19T21:43:37.976Z,63.10
2022-08-19T21:46:06.732Z,63.30
2022-08-19T21:48:35.453Z,63.50
2022-08-19T21:51:03.453Z,63.70
2022-08-19T21:53:34.248Z,63.90
2022-08-19T21:56:04.428Z,64.10
2022-08-19T21:58:32.353Z,64.20
2022-08-19T22:01:02.170Z,64.20
2022-08-19T22:03:31.193Z,64.50
2022-08-19T22:05:58.906Z,64.70
2022-08-19T22:08:27.600Z,64.90
2022-08-19T22:10:55.954Z,65.20
2022-08-19T22:13:25.193Z,65.30
2022-08-19T22:15:55.231Z,65.60
2022-08-19T22:18:24.578Z,65.80
2022-08-19T22:20:52.737Z,66.00
2022-08-19T22:23:21.595Z,66.30
2022-08-19T22:25:49.669Z,66.60
2022-08-19T22:28:18.851Z,66.70
2022-08-19T22:30:56.270Z,66.90
2022-08-19T22:33:25.974Z,67.10
2022-08-19T22:35:54.076Z,67.40
2022-08-19T22:38:23.247Z,67.60
2022-08-19T22:40:53.033Z,67.80
2022-08-19T22:43:27.308Z,68.00
2022-08-19T22:45:56.806Z,68.40
2022-08-19T22:48:28.251Z,68.40
2022-08-19T22:51:16.467Z,68.60
2022-08-19T22:53:46.792Z,68.70
2022-08-19T22:56:18.344Z,69.00
2022-08-19T22:58:50.222Z,69.20
2022-08-19T23:01:30.290Z,69.30
2022-08-19T23:04:00.179Z,69.50
2022-08-19T23:06:33.920Z,69.60
2022-08-19T23:09:05.045Z,69.80
2022-08-19T23:11:38.251Z,70.00
2022-08-19T23:14:11.528Z,70.20
2022-08-19T23:16:41.655Z,70.40
2022-08-19T23:19:10.315Z,70.40
2022-08-19T23:21:40.082Z,70.60
2022-08-19T23:24:08.300Z,70.80
2022-08-19T23:26:36.340Z,70.90
2022-08-19T23:29:24.306Z,71.10
2022-08-19T23:31:52.505Z,71.50
2022-08-19T23:34:20.576Z,71.50
2022-08-19T23:36:50.612Z,71.60
2022-08-19T23:39:19.547Z,71.80
2022-08-19T23:41:47.575Z,72.00
2022-08-19T23:44:15.492Z,72.20
2022-08-19T23:46:54.403Z,72.30
2022-08-19T23:49:31.557Z,72.40
2022-08-19T23:52:00.103Z,72.70
2022-08-19T23:54:42.927Z,72.80
2022-08-19T23:57:13.093Z,72.90
2022-08-19T23:59:43.078Z,73.10
